Time;durP1;ratioP1;P1;durP2;ratioP2;P2;SDS_P1;SDS_P2;PMS_P1;PMS_P2;Temp;Humidity;BMP_temperature;BMP_pressure;BME280_temperature;BME280_humidity;BME280_pressure;Samples;Min_cycle;Max_cycle;Signal;HPM_P1;HPM_P2
2022/09/30 00:01:20;;;;;;;0.80;0.80;;;6.60;99.90;;;;;;5070943;28;20218;-75
2022/09/30 00:03:47;;;;;;;0.70;0.70;;;6.70;99.90;;;;;;5070939;28;20308;-76
2022/09/30 00:06:13;;;;;;;0.83;0.83;;;6.50;99.90;;;;;;5070886;28;20175;-76
2022/09/30 00:08:38;;;;;;;0.80;0.80;;;6.60;99.90;;;;;;5070325;28;20198;-75
2022/09/30 00:11:15;;;;;;;0.70;0.70;;;6.50;99.90;;;;;;5070723;28;20170;-75
2022/09/30 00:13:41;;;;;;;0.80;0.80;;;6.50;99.90;;;;;;5070715;28;20178;-75
2022/09/30 00:16:09;;;;;;;0.70;0.70;;;6.50;99.90;;;;;;5070837;28;20177;-75
2022/09/30 00:18:36;;;;;;;0.70;0.70;;;6.50;99.90;;;;;;5070299;28;20285;-75
2022/09/30 00:21:02;;;;;;;0.70;0.70;;;6.50;99.90;;;;;;5070523;28;20655;-75
2022/09/30 00:23:28;;;;;;;0.70;0.70;;;6.40;99.90;;;;;;5071584;28;20631;-75
2022/09/30 00:25:58;;;;;;;0.60;0.60;;;6.30;99.90;;;;;;5074219;28;20200;-76
2022/09/30 00:28:23;;;;;;;0.60;0.60;;;6.40;99.90;;;;;;5073633;28;20194;-75
2022/09/30 00:30:49;;;;;;;0.70;0.70;;;6.40;99.90;;;;;;5074381;28;20182;-75
2022/09/30 00:33:14;;;;;;;0.70;0.70;;;6.40;99.90;;;;;;5074186;28;20178;-75
2022/09/30 00:35:40;;;;;;;0.60;0.60;;;6.40;99.90;;;;;;5074182;28;20174;-76
2022/09/30 00:38:05;;;;;;;0.70;0.70;;;6.50;99.90;;;;;;5073611;28;20194;-75
2022/09/30 00:40:31;;;;;;;0.70;0.70;;;6.50;99.90;;;;;;5073792;28;20527;-76
2022/09/30 00:42:58;;;;;;;0.70;0.70;;;6.50;99.90;;;;;;5074116;28;20221;-75
2022/09/30 00:45:30;;;;;;;0.70;0.70;;;6.60;99.90;;;;;;5074075;28;20208;-76
2022/09/30 00:48:10;;;;;;;0.70;0.70;;;6.70;99.90;;;;;;5073245;28;20682;-75
2022/09/30 00:50:45;;;;;;;0.70;0.70;;;6.60;99.90;;;;;;5073880;28;20260;-76
2022/09/30 00:53:36;;;;;;;0.70;0.70;;;6.60;99.90;;;;;;5073647;28;20251;-76
2022/09/30 00:56:08;;;;;;;0.80;0.80;;;6.60;99.90;;;;;;5073722;28;20173;-76
2022/09/30 00:58:39;;;;;;;0.73;0.73;;;6.50;99.90;;;;;;5073242;28;20697;-76
2022/09/30 01:01:05;;;;;;;0.80;0.80;;;6.50;99.90;;;;;;5073658;28;20220;-76
2022/09/30 01:03:35;;;;;;;0.80;0.80;;;6.60;99.90;;;;;;5073588;28;20574;-75
2022/09/30 01:06:01;;;;;;;0.70;0.70;;;6.70;99.90;;;;;;5073676;28;20703;-76
2022/09/30 01:08:29;;;;;;;0.70;0.70;;;6.80;99.90;;;;;;5073139;28;20194;-76
2022/09/30 01:10:55;;;;;;;0.70;0.70;;;6.80;99.90;;;;;;5073467;28;20170;-75
2022/09/30 01:13:22;;;;;;;0.60;0.60;;;6.80;99.90;;;;;;5073609;28;20537;-76
2022/09/30 01:16:13;;;;;;;0.70;0.70;;;6.80;99.90;;;;;;5073647;28;20568;-76
2022/09/30 01:19:04;;;;;;;0.80;0.80;;;6.90;99.90;;;;;;5073121;28;20198;-76
2022/09/30 01:22:01;;;;;;;0.60;0.60;;;7.00;99.90;;;;;;5073237;28;20202;-75
2022/09/30 01:24:37;;;;;;;0.70;0.70;;;7.00;99.90;;;;;;5071512;28;20273;-75
2022/09/30 01:27:54;;;;;;;0.70;0.70;;;7.00;99.90;;;;;;5073477;28;20178;-75
2022/09/30 01:30:32;;;;;;;0.70;0.70;;;7.10;99.90;;;;;;5038806;28;20189;-75
2022/09/30 01:33:06;;;;;;;0.67;0.67;;;7.10;99.90;;;;;;5073420;28;20171;-75
2022/09/30 01:36:19;;;;;;;0.77;0.77;;;7.00;99.90;;;;;;5072031;28;20639;-75
2022/09/30 01:39:00;;;;;;;0.70;0.70;;;6.90;99.90;;;;;;5068768;28;20559;-75
2022/09/30 01:41:47;;;;;;;0.67;0.67;;;6.80;99.90;;;;;;5112824;22;20279;-83
2022/09/30 01:44:28;;;;;;;0.77;0.77;;;6.70;99.90;;;;;;5114970;28;20595;-83
2022/09/30 01:47:00;;;;;;;0.70;0.70;;;6.70;99.90;;;;;;5117070;28;20166;-84
2022/09/30 01:49:41;;;;;;;0.70;0.70;;;6.70;99.90;;;;;;5116097;28;20181;-84
2022/09/30 01:52:43;;;;;;;0.70;0.70;;;6.60;99.90;;;;;;5117023;28;20188;-83
2022/09/30 01:55:27;;;;;;;0.73;0.73;;;6.60;99.90;;;;;;5115596;28;20174;-83
2022/09/30 01:58:02;;;;;;;0.73;0.73;;;6.70;99.90;;;;;;5109898;28;20217;-82
2022/09/30 02:00:31;;;;;;;0.73;0.73;;;6.80;99.90;;;;;;5102503;28;20230;-81
2022/09/30 02:03:00;;;;;;;0.70;0.70;;;6.80;99.90;;;;;;5101536;28;20581;-81
2022/09/30 02:05:44;;;;;;;0.70;0.70;;;6.70;99.90;;;;;;5103135;28;20241;-82
2022/09/30 02:08:25;;;;;;;0.60;0.60;;;6.80;99.90;;;;;;5101237;28;20216;-81
2022/09/30 02:11:18;;;;;;;0.70;0.70;;;6.70;99.90;;;;;;5101966;28;20181;-81
2022/09/30 02:13:56;;;;;;;0.60;0.60;;;6.70;99.90;;;;;;5103047;28;20181;-81
2022/09/30 02:16:31;;;;;;;0.80;0.80;;;6.70;99.90;;;;;;5102354;28;20169;-83
2022/09/30 02:19:07;;;;;;;0.70;0.70;;;6.70;99.90;;;;;;5100909;28;20201;-82
2022/09/30 02:21:37;;;;;;;0.70;0.70;;;6.70;99.90;;;;;;5100184;28;20579;-82
2022/09/30 02:24:09;;;;;;;0.60;0.60;;;6.80;99.90;;;;;;5100900;28;20204;-82
2022/09/30 02:26:39;;;;;;;0.80;0.80;;;6.80;99.90;;;;;;5100086;28;20658;-81
2022/09/30 02:29:11;;;;;;;0.60;0.60;;;6.70;99.90;;;;;;5100854;28;20190;-82
2022/09/30 02:31:40;;;;;;;0.70;0.70;;;6.60;99.90;;;;;;5103014;28;20174;-81
2022/09/30 02:34:21;;;;;;;0.70;0.70;;;6.60;99.90;;;;;;5097694;28;20176;-81
2022/09/30 02:36:55;;;;;;;0.60;0.60;;;6.50;99.90;;;;;;5103369;28;20233;-82
2022/09/30 02:39:49;;;;;;;0.70;0.70;;;6.50;99.90;;;;;;5102849;28;20220;-82
2022/09/30 02:42:23;;;;;;;0.70;0.70;;;6.60;99.90;;;;;;5102565;28;20213;-82
2022/09/30 02:44:50;;;;;;;0.73;0.73;;;6.60;99.90;;;;;;5103701;28;20178;-82
2022/09/30 02:47:35;;;;;;;0.80;0.80;;;6.60;99.90;;;;;;5104841;28;20177;-81
2022/09/30 02:50:07;;;;;;;0.80;0.80;;;6.70;99.90;;;;;;5108669;28;20174;-81
2022/09/30 02:53:00;;;;;;;0.80;0.80;;;6.70;99.90;;;;;;5104201;28;20229;-81
2022/09/30 02:55:50;;;;;;;0.70;0.70;;;6.70;99.90;;;;;;5105048;28;20193;-81
2022/09/30 02:58:21;;;;;;;0.70;0.70;;;6.80;99.90;;;;;;5088786;28;20209;-82
2022/09/30 03:00:48;;;;;;;0.70;0.70;;;6.90;99.90;;;;;;5102790;28;20177;-82
2022/09/30 03:03:21;;;;;;;0.63;0.63;;;6.90;99.90;;;;;;5100595;28;20213;-83
2022/09/30 03:05:49;;;;;;;0.60;0.60;;;6.90;99.90;;;;;;5099584;28;20641;-82
2022/09/30 03:08:14;;;;;;;0.60;0.60;;;6.90;99.90;;;;;;5097404;28;20197;-82
2022/09/30 03:10:41;;;;;;;0.80;0.80;;;6.90;99.90;;;;;;5098107;28;20534;-83
2022/09/30 03:13:09;;;;;;;0.70;0.70;;;6.80;99.90;;;;;;5097783;28;20173;-83
2022/09/30 03:15:45;;;;;;;0.70;0.70;;;6.70;99.90;;;;;;5097897;28;20262;-83
2022/09/30 03:18:39;;;;;;;0.67;0.67;;;6.80;99.90;;;;;;5096522;28;20201;-83
2022/09/30 03:21:33;;;;;;;0.67;0.67;;;6.80;99.90;;;;;;5068472;28;20300;-82
2022/09/30 03:24:33;;;;;;;0.70;0.70;;;6.90;99.90;;;;;;5099008;28;20254;-82
2022/09/30 03:27:13;;;;;;;0.70;0.70;;;6.80;99.90;;;;;;5107620;28;20196;-82
2022/09/30 03:30:06;;;;;;;0.70;0.70;;;6.80;99.90;;;;;;5107068;28;20197;-81
2022/09/30 03:33:16;;;;;;;0.60;0.60;;;6.90;99.90;;;;;;5117147;28;20158;-81
2022/09/30 03:35:49;;;;;;;0.70;0.70;;;7.00;99.90;;;;;;5116719;28;20166;-82
2022/09/30 03:38:27;;;;;;;0.70;0.70;;;7.00;99.90;;;;;;5116288;28;20185;-81
2022/09/30 03:41:01;;;;;;;0.70;0.70;;;7.00;99.90;;;;;;5115745;28;20200;-81
2022/09/30 03:43:51;;;;;;;0.70;0.70;;;7.00;99.90;;;;;;5106812;28;20189;-81
2022/09/30 03:46:25;;;;;;;0.70;0.70;;;7.00;99.90;;;;;;5101444;28;20242;-81
2022/09/30 03:48:55;;;;;;;0.70;0.70;;;7.00;99.90;;;;;;5100366;28;20522;-81
2022/09/30 03:51:23;;;;;;;0.70;0.70;;;7.00;99.90;;;;;;5099544;28;20633;-81
2022/09/30 03:53:49;;;;;;;0.60;0.60;;;7.00;99.90;;;;;;5099623;28;20672;-81
2022/09/30 03:56:28;;;;;;;0.70;0.70;;;7.00;99.90;;;;;;5100545;28;20434;-81
2022/09/30 03:58:54;;;;;;;0.70;0.70;;;7.00;99.90;;;;;;5101209;28;20539;-81
2022/09/30 04:01:20;;;;;;;0.80;0.80;;;6.80;99.90;;;;;;5102561;28;20209;-81
2022/09/30 04:03:47;;;;;;;0.70;0.70;;;6.70;99.90;;;;;;5102188;28;20178;-81
2022/09/30 04:06:13;;;;;;;0.73;0.73;;;6.60;99.90;;;;;;5101871;28;20174;-81
2022/09/30 04:08:39;;;;;;;0.60;0.60;;;6.50;99.90;;;;;;5101823;28;20221;-81
2022/09/30 04:11:04;;;;;;;0.73;0.73;;;6.50;99.90;;;;;;5101592;28;20177;-81
2022/09/30 04:13:30;;;;;;;0.60;0.60;;;6.50;99.90;;;;;;5101593;28;20178;-81
2022/09/30 04:15:57;;;;;;;0.67;0.67;;;6.50;99.90;;;;;;5101887;28;20174;-81
2022/09/30 04:18:23;;;;;;;0.67;0.67;;;6.50;99.90;;;;;;5101525;28;20193;-82
2022/09/30 04:20:49;;;;;;;0.60;0.60;;;6.40;99.90;;;;;;5101789;28;20614;-82
2022/09/30 04:23:14;;;;;;;0.70;0.70;;;6.30;99.90;;;;;;5101562;28;20245;-80
2022/09/30 04:25:40;;;;;;;0.70;0.70;;;6.30;99.90;;;;;;5101181;28;20178;-81
2022/09/30 04:28:06;;;;;;;0.70;0.70;;;6.40;99.90;;;;;;5103689;28;20617;-81
2022/09/30 04:30:31;;;;;;;0.70;0.70;;;6.50;99.90;;;;;;5102703;28;20197;-81
2022/09/30 04:32:57;;;;;;;0.70;0.70;;;6.50;99.90;;;;;;5103877;28;20365;-82
2022/09/30 04:35:22;;;;;;;0.60;0.60;;;6.60;99.90;;;;;;5103574;28;20215;-82
2022/09/30 04:37:48;;;;;;;0.70;0.70;;;6.50;99.90;;;;;;5102894;28;20254;-82
2022/09/30 04:40:15;;;;;;;0.60;0.60;;;6.60;99.90;;;;;;5103143;28;20162;-81
2022/09/30 04:42:41;;;;;;;0.60;0.60;;;6.60;99.90;;;;;;5104267;28;20624;-82
2022/09/30 04:45:11;;;;;;;0.70;0.70;;;6.60;99.90;;;;;;5104867;28;20177;-81
2022/09/30 04:47:37;;;;;;;0.70;0.70;;;6.60;99.90;;;;;;5104565;28;20649;-82
2022/09/30 04:50:04;;;;;;;0.70;0.70;;;6.60;99.90;;;;;;5102201;28;20173;-82
2022/09/30 04:52:30;;;;;;;0.70;0.70;;;6.60;99.90;;;;;;5101708;28;20165;-82
2022/09/30 04:54:57;;;;;;;0.80;0.80;;;6.50;99.90;;;;;;5100917;28;20195;-82
2022/09/30 04:57:23;;;;;;;0.80;0.80;;;6.50;99.90;;;;;;5101226;28;20201;-81
2022/09/30 04:59:49;;;;;;;0.70;0.70;;;6.50;99.90;;;;;;5101241;28;20201;-81
2022/09/30 05:02:15;;;;;;;0.80;0.80;;;6.40;99.90;;;;;;5105315;28;20235;-82
2022/09/30 05:04:41;;;;;;;0.73;0.73;;;6.30;99.90;;;;;;5106140;28;20170;-82
2022/09/30 05:07:07;;;;;;;0.70;0.70;;;6.30;99.90;;;;;;5106453;28;20311;-81
2022/09/30 05:09:34;;;;;;;0.70;0.70;;;6.30;99.90;;;;;;5106316;28;20720;-81
2022/09/30 05:12:01;;;;;;;0.70;0.70;;;6.30;99.90;;;;;;5108202;28;20189;-82
2022/09/30 05:14:27;;;;;;;0.70;0.70;;;6.20;99.90;;;;;;5107846;28;20178;-81
2022/09/30 05:16:52;;;;;;;0.70;0.70;;;6.20;99.90;;;;;;5108568;28;20268;-81
2022/09/30 05:19:18;;;;;;;0.70;0.70;;;6.20;99.90;;;;;;5107217;28;20219;-82
2022/09/30 05:21:44;;;;;;;1.00;1.00;;;6.20;99.90;;;;;;5106509;28;20202;-83
2022/09/30 05:24:09;;;;;;;0.70;0.70;;;6.30;99.90;;;;;;5101640;28;20559;-82
2022/09/30 05:26:35;;;;;;;0.80;0.80;;;6.30;99.90;;;;;;5102258;28;20178;-82
2022/09/30 05:29:00;;;;;;;0.83;0.83;;;6.40;99.90;;;;;;5104951;28;20193;-82
2022/09/30 05:31:26;;;;;;;0.73;0.73;;;6.40;99.90;;;;;;5105974;28;20249;-82
2022/09/30 05:33:53;;;;;;;0.70;0.70;;;6.40;99.90;;;;;;5105283;28;20265;-82
2022/09/30 05:36:19;;;;;;;0.70;0.70;;;6.50;99.90;;;;;;5103494;28;20178;-82
2022/09/30 05:38:44;;;;;;;0.70;0.70;;;6.50;99.90;;;;;;5104576;28;20202;-82
2022/09/30 05:41:12;;;;;;;0.70;0.70;;;6.60;99.90;;;;;;5104271;28;20201;-82
2022/09/30 05:43:39;;;;;;;0.80;0.80;;;6.60;99.90;;;;;;5108688;28;20185;-82
2022/09/30 05:46:05;;;;;;;0.63;0.63;;;7.20;99.90;;;;;;5108548;28;20178;-82
2022/09/30 05:48:31;;;;;;;0.70;0.70;;;6.60;99.90;;;;;;5103903;28;20739;-82
2022/09/30 05:51:00;;;;;;;0.67;0.67;;;6.60;99.90;;;;;;5104172;28;20181;-82
2022/09/30 05:53:26;;;;;;;0.60;0.60;;;6.60;99.90;;;;;;5106030;28;20197;-82
2022/09/30 05:55:52;;;;;;;0.70;0.70;;;6.70;99.90;;;;;;5108463;28;20258;-82
2022/09/30 05:58:19;;;;;;;0.70;0.70;;;6.80;99.90;;;;;;5114635;28;20182;-82
2022/09/30 06:00:46;;;;;;;0.70;0.70;;;6.90;99.90;;;;;;5114880;28;20178;-81
2022/09/30 06:03:12;;;;;;;0.70;0.70;;;6.80;99.90;;;;;;5104939;28;20214;-82
2022/09/30 06:05:38;;;;;;;1.10;1.10;;;6.90;99.90;;;;;;5103900;28;20185;-83
2022/09/30 06:08:06;;;;;;;0.70;0.70;;;6.90;99.90;;;;;;5107844;28;20194;-82
2022/09/30 06:10:33;;;;;;;0.80;0.80;;;6.90;99.90;;;;;;5111755;28;20174;-82
2022/09/30 06:13:01;;;;;;;0.80;0.80;;;6.90;99.90;;;;;;5109977;28;20181;-82
2022/09/30 06:15:26;;;;;;;1.00;1.00;;;7.00;99.90;;;;;;5108273;28;20166;-81
2022/09/30 06:17:53;;;;;;;0.80;0.80;;;6.90;99.90;;;;;;5116188;28;20644;-81
2022/09/30 06:20:19;;;;;;;0.90;0.90;;;7.00;99.90;;;;;;5115614;28;20293;-82
2022/09/30 06:22:44;;;;;;;1.10;1.10;;;6.90;99.90;;;;;;5115746;28;20230;-80
2022/09/30 06:25:10;;;;;;;0.90;0.90;;;6.90;99.90;;;;;;5114482;28;20158;-77
2022/09/30 06:27:37;;;;;;;0.90;0.90;;;6.90;99.90;;;;;;5111754;28;20188;-77
2022/09/30 06:30:04;;;;;;;1.00;1.00;;;7.00;99.90;;;;;;5112357;28;20242;-79
2022/09/30 06:32:29;;;;;;;0.73;0.73;;;7.20;99.90;;;;;;5093848;28;20645;-78
2022/09/30 06:34:55;;;;;;;0.90;0.90;;;7.20;99.90;;;;;;5095845;28;20167;-78
2022/09/30 06:37:21;;;;;;;0.70;0.70;;;7.40;99.90;;;;;;5095096;28;20162;-80
2022/09/30 06:39:49;;;;;;;1.00;1.00;;;7.50;99.90;;;;;;5093550;28;20666;-80
2022/09/30 06:42:15;;;;;;;0.70;0.70;;;7.30;99.90;;;;;;5103511;28;20218;-78
2022/09/30 06:44:40;;;;;;;0.90;0.90;;;7.40;99.90;;;;;;5110169;28;20215;-79
2022/09/30 06:47:06;;;;;;;0.80;0.80;;;7.20;99.90;;;;;;5105865;28;20174;-78
2022/09/30 06:49:33;;;;;;;1.00;1.00;;;7.20;99.90;;;;;;5106880;28;20525;-79
2022/09/30 06:52:00;;;;;;;0.70;0.70;;;7.20;99.90;;;;;;5103621;28;20656;-78
2022/09/30 06:54:27;;;;;;;1.00;1.00;;;7.20;99.90;;;;;;5105399;28;20189;-81
2022/09/30 06:56:56;;;;;;;0.80;0.80;;;6.90;99.90;;;;;;5105690;28;20204;-80
2022/09/30 06:59:22;;;;;;;0.80;0.80;;;7.00;99.90;;;;;;5109036;28;20197;-79
2022/09/30 07:01:48;;;;;;;0.73;0.73;;;7.30;99.90;;;;;;5109676;28;20217;-80
2022/09/30 07:04:15;;;;;;;0.80;0.80;;;7.60;99.90;;;;;;5109389;28;20193;-79
2022/09/30 07:06:40;;;;;;;0.90;0.90;;;7.30;99.90;;;;;;5107980;28;20204;-78
2022/09/30 07:09:07;;;;;;;0.70;0.70;;;7.10;99.90;;;;;;5101533;28;20217;-77
2022/09/30 07:11:33;;;;;;;1.40;1.30;;;7.40;99.90;;;;;;5101738;28;20204;-80
2022/09/30 07:13:58;;;;;;;1.13;1.13;;;7.20;99.90;;;;;;5097465;28;20181;-77
2022/09/30 07:16:24;;;;;;;0.90;0.90;;;7.20;99.90;;;;;;5103692;28;20173;-81
2022/09/30 07:18:50;;;;;;;0.83;0.83;;;7.20;99.90;;;;;;5111429;28;20197;-81
2022/09/30 07:21:16;;;;;;;0.80;0.80;;;7.50;99.90;;;;;;5101832;28;20186;-81
2022/09/30 07:23:48;;;;;;;0.70;0.70;;;7.40;99.90;;;;;;5100199;28;20235;-80
2022/09/30 07:26:20;;;;;;;0.80;0.80;;;7.50;99.90;;;;;;5103563;28;20642;-81
2022/09/30 07:28:46;;;;;;;0.90;0.90;;;7.40;99.90;;;;;;5106412;28;20193;-80
2022/09/30 07:31:16;;;;;;;0.70;0.70;;;7.30;99.90;;;;;;5121802;28;20193;-81
2022/09/30 07:33:42;;;;;;;0.90;0.90;;;7.40;99.90;;;;;;5112334;28;20725;-82
2022/09/30 07:36:09;;;;;;;0.80;0.80;;;7.50;99.90;;;;;;5112995;28;20231;-80
2022/09/30 07:38:39;;;;;;;0.90;0.90;;;7.50;99.90;;;;;;5126567;28;20204;-81
2022/09/30 07:41:11;;;;;;;0.80;0.80;;;7.60;99.90;;;;;;5160533;22;20293;-73
2022/09/30 07:43:38;;;;;;;0.80;0.80;;;7.80;99.90;;;;;;5095963;28;20277;-74
2022/09/30 07:46:07;;;;;;;0.60;0.60;;;8.20;99.90;;;;;;5096100;28;20173;-73
2022/09/30 07:48:43;;;;;;;0.70;0.70;;;8.60;99.90;;;;;;5095626;28;20277;-73
2022/09/30 07:51:22;;;;;;;0.70;0.70;;;9.00;99.90;;;;;;5096076;28;20522;-73
2022/09/30 07:53:50;;;;;;;0.70;0.70;;;9.00;99.90;;;;;;5095921;28;20176;-73
2022/09/30 07:56:16;;;;;;;0.60;0.60;;;9.20;99.90;;;;;;5096827;28;20663;-71
2022/09/30 07:58:43;;;;;;;0.60;0.60;;;9.30;99.90;;;;;;5104408;28;20197;-72
2022/09/30 08:01:09;;;;;;;0.50;0.50;;;9.40;99.90;;;;;;5112968;28;20173;-71
2022/09/30 08:03:38;;;;;;;0.50;0.50;;;9.40;99.90;;;;;;5115736;28;20718;-71
2022/09/30 08:06:09;;;;;;;0.50;0.50;;;9.20;99.90;;;;;;5115899;28;20184;-72
2022/09/30 08:08:35;;;;;;;0.50;0.50;;;9.00;99.90;;;;;;5115065;28;20201;-71
2022/09/30 08:11:02;;;;;;;0.60;0.60;;;8.80;99.90;;;;;;5116089;27;20177;-71
2022/09/30 08:13:28;;;;;;;0.50;0.50;;;8.90;99.90;;;;;;5094810;28;20174;-71
2022/09/30 08:15:54;;;;;;;0.60;0.60;;;9.10;99.90;;;;;;5094889;28;20261;-71
2022/09/30 08:18:19;;;;;;;0.50;0.50;;;9.30;99.90;;;;;;5094557;28;20193;-71
2022/09/30 08:20:45;;;;;;;0.50;0.50;;;9.50;99.90;;;;;;5104568;28;20733;-71
2022/09/30 08:23:10;;;;;;;0.50;0.50;;;9.60;99.90;;;;;;5110297;28;20213;-71
2022/09/30 08:25:36;;;;;;;0.50;0.50;;;9.80;99.90;;;;;;5092808;28;20180;-71
2022/09/30 08:28:01;;;;;;;0.60;0.60;;;9.90;99.90;;;;;;5094458;28;20197;-72
2022/09/30 08:30:27;;;;;;;0.50;0.50;;;9.80;99.90;;;;;;5094716;28;20174;-72
2022/09/30 08:32:53;;;;;;;0.40;0.40;;;9.80;99.90;;;;;;5095252;28;20169;-71
2022/09/30 08:35:18;;;;;;;0.40;0.40;;;9.80;99.90;;;;;;5104713;28;20636;-71
2022/09/30 08:37:44;;;;;;;0.53;0.53;;;9.90;99.90;;;;;;5094452;28;20174;-71
2022/09/30 08:40:22;;;;;;;0.50;0.50;;;10.10;99.90;;;;;;5092780;28;20186;-71
2022/09/30 08:42:47;;;;;;;0.50;0.50;;;10.60;99.90;;;;;;5094717;28;20213;-71
2022/09/30 08:45:45;;;;;;;0.47;0.47;;;10.50;48.40;;;;;;5111441;28;20212;-72
2022/09/30 08:48:19;;;;;;;0.50;0.50;;;10.50;42.70;;;;;;5088403;28;20264;-72
2022/09/30 08:51:30;;;;;;;0.50;0.50;;;10.60;91.80;;;;;;5087209;28;20169;-71
2022/09/30 08:53:58;;;;;;;0.50;0.50;;;10.80;21.50;;;;;;5083332;28;20211;-71
2022/09/30 08:56:28;;;;;;;0.57;0.57;;;10.80;33.40;;;;;;5091954;28;20231;-71
2022/09/30 08:58:58;;;;;;;0.60;0.60;;;10.80;46.00;;;;;;5099612;28;20212;-72
2022/09/30 09:01:39;;;;;;;0.50;0.50;;;10.90;15.00;;;;;;5099299;28;20725;-72
2022/09/30 09:04:06;;;;;;;0.50;0.50;;;11.10;1.00;;;;;;5110955;28;20221;-72
2022/09/30 09:06:41;;;;;;;0.40;0.40;;;11.40;1.00;;;;;;5095740;28;20174;-72
2022/09/30 09:09:10;;;;;;;0.60;0.60;;;11.70;1.00;;;;;;5093165;28;20209;-72
2022/09/30 09:11:44;;;;;;;0.60;0.60;;;11.60;1.00;;;;;;5093932;28;20288;-72
2022/09/30 09:14:39;;;;;;;0.40;0.40;;;12.10;1.00;;;;;;5093716;28;20264;-72
2022/09/30 09:17:30;;;;;;;0.53;0.53;;;12.70;1.00;;;;;;5093741;28;20169;-73
2022/09/30 09:20:17;;;;;;;0.40;0.40;;;13.60;86.60;;;;;;5092011;28;20243;-73
2022/09/30 09:22:47;;;;;;;0.30;0.30;;;14.10;1.00;;;;;;5093242;28;20213;-73
2022/09/30 09:25:15;;;;;;;0.37;0.37;;;15.90;1.00;;;;;;5093611;28;20186;-73
2022/09/30 09:28:00;;;;;;;0.40;0.40;;;16.10;99.90;;;;;;5098342;28;20187;-73
2022/09/30 09:30:32;;;;;;;0.50;0.50;;;16.10;99.90;;;;;;5093906;28;20192;-73
2022/09/30 09:33:13;;;;;;;0.40;0.40;;;17.10;99.90;;;;;;5093898;28;20174;-73
2022/09/30 09:35:57;;;;;;;0.40;0.40;;;16.60;99.90;;;;;;5096595;28;20184;-72
2022/09/30 09:38:53;;;;;;;0.40;0.40;;;17.20;28.10;;;;;;5112732;28;20207;-73
2022/09/30 09:41:54;;;;;;;0.50;0.50;;;16.70;29.60;;;;;;5090192;28;20259;-72
2022/09/30 09:44:52;;;;;;;0.37;0.37;;;17.40;12.80;;;;;;5008295;28;20266;-72
2022/09/30 09:47:18;;;;;;;0.40;0.40;;;17.80;1.00;;;;;;5090438;28;20215;-73
2022/09/30 09:49:56;;;;;;;0.50;0.50;;;17.70;1.00;;;;;;5092776;28;20230;-72
2022/09/30 09:52:49;;;;;;;0.50;0.50;;;17.10;1.00;;;;;;5090748;28;20619;-72
2022/09/30 09:55:20;;;;;;;0.50;0.50;;;16.40;99.90;;;;;;5091911;28;20199;-73
2022/09/30 09:57:46;;;;;;;0.43;0.43;;;16.50;99.90;;;;;;5091670;28;20255;-72
2022/09/30 10:03:26;;;;;;;0.50;0.50;;;17.50;1.00;;;;;;5030495;28;20222;-74
2022/09/30 10:06:13;;;;;;;0.50;0.50;;;17.90;1.00;;;;;;5080636;28;20208;-72
2022/09/30 10:08:52;;;;;;;0.40;0.40;;;18.50;1.00;;;;;;5092436;28;20725;-72
2022/09/30 10:11:23;;;;;;;0.50;0.50;;;19.10;1.00;;;;;;5092872;28;20181;-75
2022/09/30 10:13:51;;;;;;;0.40;0.40;;;18.90;1.00;;;;;;5093328;28;20259;-72
2022/09/30 10:16:36;;;;;;;0.50;0.50;;;18.80;1.00;;;;;;5092731;28;20174;-71
2022/09/30 10:19:25;;;;;;;0.60;0.60;;;18.70;1.00;;;;;;5091722;28;20197;-72
2022/09/30 10:22:11;;;;;;;0.50;0.50;;;19.10;1.00;;;;;;5082870;28;20693;-72
2022/09/30 10:24:38;;;;;;;0.47;0.47;;;18.70;1.00;;;;;;5092056;28;20174;-71
2022/09/30 10:27:24;;;;;;;0.50;0.50;;;18.40;1.00;;;;;;5091697;28;20170;-72
2022/09/30 10:29:49;;;;;;;0.50;0.50;;;18.80;1.00;;;;;;5071937;28;20591;-72
2022/09/30 10:32:15;;;;;;;0.40;0.40;;;19.50;1.00;;;;;;5077206;28;20203;-72
2022/09/30 10:34:43;;;;;;;0.60;0.60;;;19.70;1.00;;;;;;5091665;28;20170;-72
2022/09/30 10:37:21;;;;;;;0.60;0.60;;;20.00;1.00;;;;;;5091834;28;20239;-72
2022/09/30 10:40:03;;;;;;;0.40;0.40;;;19.70;1.00;;;;;;5089915;28;20194;-71
2022/09/30 10:42:32;;;;;;;0.60;0.60;;;20.00;1.00;;;;;;5091885;28;20670;-72
2022/09/30 10:45:02;;;;;;;0.50;0.50;;;20.00;1.00;;;;;;5092234;28;20184;-71
2022/09/30 10:47:29;;;;;;;0.60;0.60;;;19.90;1.00;;;;;;5095030;28;20201;-71
2022/09/30 10:50:14;;;;;;;0.60;0.60;;;20.00;1.00;;;;;;5098357;28;20731;-72
2022/09/30 10:52:47;;;;;;;0.53;0.53;;;19.80;1.00;;;;;;5099931;28;20227;-70
2022/09/30 10:55:40;;;;;;;0.40;0.40;;;19.00;1.00;;;;;;5100697;28;20227;-71
2022/09/30 10:58:28;;;;;;;0.40;0.40;;;19.10;1.00;;;;;;5100739;28;20280;-71
2022/09/30 11:01:18;;;;;;;0.30;0.30;;;19.50;1.00;;;;;;5099557;28;20174;-71
2022/09/30 11:04:01;;;;;;;0.40;0.40;;;19.80;1.00;;;;;;5097139;28;20476;-72
2022/09/30 11:06:31;;;;;;;0.30;0.30;;;20.60;1.00;;;;;;5092180;28;20214;-72
2022/09/30 11:09:19;;;;;;;0.40;0.40;;;20.30;1.00;;;;;;5091289;28;20197;-72
2022/09/30 11:11:59;;;;;;;0.40;0.40;;;20.00;1.00;;;;;;5091660;28;20178;-73
2022/09/30 11:14:32;;;;;;;0.60;0.60;;;20.10;1.00;;;;;;5091856;28;20174;-72
2022/09/30 11:17:37;;;;;;;0.50;0.50;;;21.30;1.00;;;;;;5090042;28;20227;-72
2022/09/30 11:20:13;;;;;;;0.60;0.60;;;21.20;1.00;;;;;;5090949;28;20630;-73
2022/09/30 11:22:43;;;;;;;0.50;0.50;;;21.50;1.00;;;;;;5091372;28;20216;-72
2022/09/30 11:25:21;;;;;;;0.50;0.50;;;21.60;1.00;;;;;;5091619;28;20205;-72
2022/09/30 11:28:17;;;;;;;0.40;0.40;;;21.50;1.00;;;;;;5090880;28;20197;-72
2022/09/30 11:31:20;;;;;;;0.50;0.50;;;21.70;1.00;;;;;;5091473;28;20217;-72
2022/09/30 11:33:51;;;;;;;0.50;0.50;;;21.70;1.00;;;;;;5091620;28;20181;-72
2022/09/30 11:36:22;;;;;;;0.40;0.40;;;21.70;1.00;;;;;;5090718;28;20174;-73
2022/09/30 11:39:23;;;;;;;0.43;0.43;;;21.00;1.00;;;;;;5090209;28;20676;-73
2022/09/30 11:42:04;;;;;;;0.40;0.40;;;21.30;1.00;;;;;;5065207;28;20220;-73
2022/09/30 11:44:40;;;;;;;0.43;0.43;;;21.60;1.00;;;;;;5090739;28;20614;-73
2022/09/30 11:47:43;;;;;;;0.50;0.50;;;22.60;1.00;;;;;;5091331;28;20181;-71
2022/09/30 11:50:42;;;;;;;0.53;0.53;;;22.10;1.00;;;;;;5091454;28;20176;-72
2022/09/30 11:53:31;;;;;;;0.50;0.50;;;22.30;1.00;;;;;;5076273;28;20189;-73
2022/09/30 11:56:19;;;;;;;0.60;0.60;;;23.20;1.00;;;;;;5091577;28;20170;-73
2022/09/30 11:58:49;;;;;;;0.63;0.63;;;22.90;1.00;;;;;;5090678;28;20212;-75
2022/09/30 12:01:43;;;;;;;0.63;0.63;;;23.10;1.00;;;;;;5090328;28;20393;-74
2022/09/30 12:04:18;;;;;;;0.60;0.60;;;23.10;1.00;;;;;;5088311;28;20196;-74
2022/09/30 12:06:54;;;;;;;0.60;0.60;;;23.40;1.00;;;;;;5091299;28;20200;-74
2022/09/30 12:09:27;;;;;;;0.60;0.60;;;23.70;1.00;;;;;;5098459;28;20610;-73
2022/09/30 12:12:02;;;;;;;0.60;0.60;;;23.60;1.00;;;;;;5091339;28;20174;-73
2022/09/30 12:14:32;;;;;;;0.60;0.60;;;23.30;1.00;;;;;;5091178;28;20246;-74
2022/09/30 12:17:01;;;;;;;0.60;0.60;;;23.30;1.00;;;;;;5091505;28;20173;-73
2022/09/30 12:19:43;;;;;;;0.50;0.50;;;22.90;1.00;;;;;;5091371;28;20607;-74
2022/09/30 12:22:27;;;;;;;0.50;0.50;;;23.50;1.00;;;;;;5101504;28;20613;-73
2022/09/30 12:24:52;;;;;;;0.70;0.70;;;23.70;1.00;;;;;;5115607;28;20248;-73
2022/09/30 12:27:47;;;;;;;0.53;0.53;;;24.30;1.00;;;;;;5115033;28;20223;-74
2022/09/30 12:30:21;;;;;;;0.50;0.50;;;24.10;1.00;;;;;;5101781;28;20177;-73
2022/09/30 12:33:12;;;;;;;0.40;0.40;;;23.40;1.00;;;;;;5115310;28;20202;-73
2022/09/30 12:35:57;;;;;;;0.33;0.33;;;23.00;1.00;;;;;;5115437;28;20174;-73
2022/09/30 12:38:41;;;;;;;0.40;0.40;;;22.50;1.00;;;;;;5114539;28;20284;-73
2022/09/30 12:41:34;;;;;;;0.50;0.50;;;23.00;1.00;;;;;;5114942;28;20497;-73
2022/09/30 12:44:24;;;;;;;0.47;0.47;;;22.80;1.00;;;;;;5115171;28;20188;-73
2022/09/30 12:47:13;;;;;;;0.40;0.40;;;22.80;1.00;;;;;;5114981;28;20625;-73
2022/09/30 12:49:40;;;;;;;0.43;0.43;;;22.90;1.00;;;;;;5114436;28;20231;-73
2022/09/30 12:52:16;;;;;;;0.40;0.40;;;23.70;1.00;;;;;;5114961;28;20177;-73
2022/09/30 12:54:48;;;;;;;0.40;0.40;;;24.00;1.00;;;;;;5114919;28;20185;-73
2022/09/30 12:57:24;;;;;;;0.40;0.40;;;24.30;1.00;;;;;;5114725;28;20264;-73
2022/09/30 13:00:07;;;;;;;0.43;0.43;;;23.50;1.00;;;;;;5114570;28;20563;-73
2022/09/30 13:02:39;;;;;;;0.40;0.40;;;23.80;1.00;;;;;;5114741;28;20217;-73
2022/09/30 13:05:26;;;;;;;0.40;0.40;;;23.40;1.00;;;;;;5114714;28;20174;-72
2022/09/30 13:08:03;;;;;;;0.40;0.40;;;22.90;1.00;;;;;;5114049;28;20280;-73
2022/09/30 13:10:30;;;;;;;0.40;0.40;;;23.70;1.00;;;;;;5114410;28;20381;-73
2022/09/30 13:13:22;;;;;;;0.33;0.33;;;22.90;1.00;;;;;;5114682;28;20226;-72
2022/09/30 13:15:49;;;;;;;0.33;0.33;;;22.80;1.00;;;;;;5114703;27;20531;-73
2022/09/30 13:18:25;;;;;;;0.30;0.30;;;22.50;1.00;;;;;;5113829;28;20197;-73
2022/09/30 13:20:56;;;;;;;0.40;0.40;;;22.60;1.00;;;;;;5114179;28;20241;-73
2022/09/30 13:23:54;;;;;;;0.40;0.40;;;22.70;1.00;;;;;;5113875;28;20209;-73
2022/09/30 13:26:26;;;;;;;0.30;0.30;;;21.80;1.00;;;;;;5113828;28;20219;-73
2022/09/30 13:28:53;;;;;;;0.30;0.30;;;20.70;1.00;;;;;;5113124;28;20212;-73
2022/09/30 13:31:21;;;;;;;0.30;0.30;;;20.50;1.00;;;;;;5112353;28;20173;-72
2022/09/30 13:34:02;;;;;;;0.30;0.30;;;19.80;1.00;;;;;;5113980;28;20173;-73